sensor_id;sensor_type;location;lat;lon;timestamp;P1;durP1;ratioP1;P2;durP2;ratioP2
56429;SDS011;42332;52.136;20.666;2024-02-14T00:00:28;19.42;;;7.63;;
56429;SDS011;42332;52.136;20.666;2024-02-14T00:02:53;25.60;;;8.25;;
56429;SDS011;42332;52.136;20.666;2024-02-14T00:05:19;16.08;;;6.60;;
56429;SDS011;42332;52.136;20.666;2024-02-14T00:07:44;22.00;;;6.75;;
56429;SDS011;42332;52.136;20.666;2024-02-14T00:10:09;17.08;;;6.03;;
56429;SDS011;42332;52.136;20.666;2024-02-14T00:12:35;27.83;;;8.05;;
56429;SDS011;42332;52.136;20.666;2024-02-14T00:15:02;19.00;;;7.35;;
56429;SDS011;42332;52.136;20.666;2024-02-14T00:17:28;17.98;;;6.72;;
56429;SDS011;42332;52.136;20.666;2024-02-14T00:19:54;17.23;;;6.95;;
56429;SDS011;42332;52.136;20.666;2024-02-14T00:22:19;22.08;;;7.40;;
56429;SDS011;42332;52.136;20.666;2024-02-14T00:24:45;18.52;;;6.68;;
56429;SDS011;42332;52.136;20.666;2024-02-14T00:27:10;25.33;;;7.80;;
56429;SDS011;42332;52.136;20.666;2024-02-14T00:29:35;16.50;;;7.25;;
56429;SDS011;42332;52.136;20.666;2024-02-14T00:32:01;19.55;;;7.95;;
56429;SDS011;42332;52.136;20.666;2024-02-14T00:34:26;16.70;;;7.43;;
56429;SDS011;42332;52.136;20.666;2024-02-14T00:36:52;22.23;;;7.70;;
56429;SDS011;42332;52.136;20.666;2024-02-14T00:39:17;21.10;;;8.23;;
56429;SDS011;42332;52.136;20.666;2024-02-14T00:41:43;29.83;;;8.18;;
56429;SDS011;42332;52.136;20.666;2024-02-14T00:44:08;19.50;;;6.82;;
56429;SDS011;42332;52.136;20.666;2024-02-14T00:46:34;29.08;;;8.80;;
56429;SDS011;42332;52.136;20.666;2024-02-14T00:48:59;19.70;;;7.45;;
56429;SDS011;42332;52.136;20.666;2024-02-14T00:51:24;37.03;;;7.65;;
56429;SDS011;42332;52.136;20.666;2024-02-14T00:53:51;21.23;;;7.88;;
56429;SDS011;42332;52.136;20.666;2024-02-14T00:56:17;30.73;;;8.13;;
56429;SDS011;42332;52.136;20.666;2024-02-14T00:58:43;15.05;;;7.45;;
56429;SDS011;42332;52.136;20.666;2024-02-14T01:01:08;26.05;;;8.75;;
56429;SDS011;42332;52.136;20.666;2024-02-14T01:03:33;19.92;;;7.78;;
56429;SDS011;42332;52.136;20.666;2024-02-14T01:05:59;28.65;;;8.38;;
56429;SDS011;42332;52.136;20.666;2024-02-14T01:08:24;18.48;;;8.18;;
56429;SDS011;42332;52.136;20.666;2024-02-14T01:10:49;18.63;;;7.90;;
56429;SDS011;42332;52.136;20.666;2024-02-14T01:13:16;25.33;;;9.40;;
56429;SDS011;42332;52.136;20.666;2024-02-14T01:15:42;19.13;;;7.93;;
56429;SDS011;42332;52.136;20.666;2024-02-14T01:18:08;20.00;;;8.57;;
56429;SDS011;42332;52.136;20.666;2024-02-14T01:20:33;24.77;;;9.10;;
56429;SDS011;42332;52.136;20.666;2024-02-14T01:22:58;18.90;;;8.13;;
56429;SDS011;42332;52.136;20.666;2024-02-14T01:25:24;24.45;;;8.90;;
56429;SDS011;42332;52.136;20.666;2024-02-14T01:27:50;19.77;;;8.25;;
56429;SDS011;42332;52.136;20.666;2024-02-14T01:30:17;20.70;;;7.88;;
56429;SDS011;42332;52.136;20.666;2024-02-14T01:32:43;23.52;;;9.20;;
56429;SDS011;42332;52.136;20.666;2024-02-14T01:35:08;30.55;;;8.38;;
56429;SDS011;42332;52.136;20.666;2024-02-14T01:37:34;24.48;;;9.68;;
56429;SDS011;42332;52.136;20.666;2024-02-14T01:40:00;24.42;;;9.68;;
56429;SDS011;42332;52.136;20.666;2024-02-14T01:42:25;18.20;;;8.27;;
56429;SDS011;42332;52.136;20.666;2024-02-14T01:44:52;26.50;;;8.45;;
56429;SDS011;42332;52.136;20.666;2024-02-14T01:47:19;17.15;;;7.75;;
56429;SDS011;42332;52.136;20.666;2024-02-14T01:49:45;26.25;;;8.27;;
56429;SDS011;42332;52.136;20.666;2024-02-14T01:52:12;20.80;;;8.40;;
56429;SDS011;42332;52.136;20.666;2024-02-14T01:54:37;23.38;;;8.02;;
56429;SDS011;42332;52.136;20.666;2024-02-14T01:57:03;25.08;;;8.23;;
56429;SDS011;42332;52.136;20.666;2024-02-14T01:59:30;25.27;;;7.35;;
56429;SDS011;42332;52.136;20.666;2024-02-14T02:01:55;21.70;;;8.52;;
56429;SDS011;42332;52.136;20.666;2024-02-14T02:04:20;22.90;;;8.13;;
56429;SDS011;42332;52.136;20.666;2024-02-14T02:06:46;21.67;;;8.27;;
56429;SDS011;42332;52.136;20.666;2024-02-14T02:09:11;22.30;;;9.57;;
56429;SDS011;42332;52.136;20.666;2024-02-14T02:11:47;18.63;;;7.53;;
56429;SDS011;42332;52.136;20.666;2024-02-14T02:14:14;20.40;;;7.45;;
56429;SDS011;42332;52.136;20.666;2024-02-14T02:16:39;18.08;;;8.00;;
56429;SDS011;42332;52.136;20.666;2024-02-14T02:19:05;20.02;;;8.13;;
56429;SDS011;42332;52.136;20.666;2024-02-14T02:21:33;27.88;;;8.85;;
56429;SDS011;42332;52.136;20.666;2024-02-14T02:24:00;28.58;;;9.27;;
56429;SDS011;42332;52.136;20.666;2024-02-14T02:26:26;25.77;;;7.70;;
56429;SDS011;42332;52.136;20.666;2024-02-14T02:28:51;20.55;;;8.40;;
56429;SDS011;42332;52.136;20.666;2024-02-14T02:31:16;20.90;;;8.43;;
56429;SDS011;42332;52.136;20.666;2024-02-14T02:33:42;22.52;;;8.25;;
56429;SDS011;42332;52.136;20.666;2024-02-14T02:36:08;23.48;;;7.80;;
56429;SDS011;42332;52.136;20.666;2024-02-14T02:38:34;18.85;;;7.60;;
56429;SDS011;42332;52.136;20.666;2024-02-14T02:41:01;24.48;;;8.82;;
56429;SDS011;42332;52.136;20.666;2024-02-14T02:43:27;25.90;;;8.45;;
56429;SDS011;42332;52.136;20.666;2024-02-14T02:45:53;22.95;;;9.20;;
56429;SDS011;42332;52.136;20.666;2024-02-14T02:48:18;20.52;;;7.72;;
56429;SDS011;42332;52.136;20.666;2024-02-14T02:50:47;22.60;;;8.52;;
56429;SDS011;42332;52.136;20.666;2024-02-14T02:53:14;19.83;;;8.65;;
56429;SDS011;42332;52.136;20.666;2024-02-14T02:55:40;27.98;;;8.68;;
56429;SDS011;42332;52.136;20.666;2024-02-14T02:58:05;20.20;;;7.68;;
56429;SDS011;42332;52.136;20.666;2024-02-14T03:00:31;22.75;;;9.80;;
56429;SDS011;42332;52.136;20.666;2024-02-14T03:02:57;25.08;;;7.93;;
56429;SDS011;42332;52.136;20.666;2024-02-14T03:05:22;25.80;;;9.25;;
56429;SDS011;42332;52.136;20.666;2024-02-14T03:07:48;24.50;;;10.15;;
56429;SDS011;42332;52.136;20.666;2024-02-14T03:10:15;25.65;;;9.48;;
56429;SDS011;42332;52.136;20.666;2024-02-14T03:12:44;24.90;;;9.00;;
56429;SDS011;42332;52.136;20.666;2024-02-14T03:15:10;23.35;;;8.23;;
56429;SDS011;42332;52.136;20.666;2024-02-14T03:17:36;33.38;;;9.43;;
56429;SDS011;42332;52.136;20.666;2024-02-14T03:20:02;25.08;;;8.82;;
56429;SDS011;42332;52.136;20.666;2024-02-14T03:22:32;23.17;;;9.20;;
56429;SDS011;42332;52.136;20.666;2024-02-14T03:24:57;21.27;;;9.38;;
56429;SDS011;42332;52.136;20.666;2024-02-14T03:27:23;22.55;;;8.98;;
56429;SDS011;42332;52.136;20.666;2024-02-14T03:29:51;18.50;;;8.48;;
56429;SDS011;42332;52.136;20.666;2024-02-14T03:32:16;22.63;;;9.00;;
56429;SDS011;42332;52.136;20.666;2024-02-14T03:34:42;23.02;;;8.02;;
56429;SDS011;42332;52.136;20.666;2024-02-14T03:37:07;27.30;;;8.73;;
56429;SDS011;42332;52.136;20.666;2024-02-14T03:39:33;18.15;;;9.30;;
56429;SDS011;42332;52.136;20.666;2024-02-14T03:41:58;32.20;;;9.85;;
56429;SDS011;42332;52.136;20.666;2024-02-14T03:44:27;25.67;;;9.52;;
56429;SDS011;42332;52.136;20.666;2024-02-14T03:46:53;21.05;;;8.70;;
56429;SDS011;42332;52.136;20.666;2024-02-14T03:49:18;26.15;;;9.02;;
56429;SDS011;42332;52.136;20.666;2024-02-14T03:51:44;20.77;;;8.75;;
56429;SDS011;42332;52.136;20.666;2024-02-14T03:54:10;22.65;;;9.63;;
56429;SDS011;42332;52.136;20.666;2024-02-14T03:56:36;23.35;;;9.93;;
56429;SDS011;42332;52.136;20.666;2024-02-14T03:59:02;24.48;;;9.55;;
56429;SDS011;42332;52.136;20.666;2024-02-14T04:01:30;23.42;;;9.48;;
56429;SDS011;42332;52.136;20.666;2024-02-14T04:03:56;22.05;;;8.93;;
56429;SDS011;42332;52.136;20.666;2024-02-14T04:06:21;22.67;;;7.93;;
56429;SDS011;42332;52.136;20.666;2024-02-14T04:08:47;16.00;;;7.78;;
56429;SDS011;42332;52.136;20.666;2024-02-14T04:11:12;18.52;;;8.75;;
56429;SDS011;42332;52.136;20.666;2024-02-14T04:13:39;26.95;;;9.43;;
56429;SDS011;42332;52.136;20.666;2024-02-14T04:16:05;18.98;;;8.48;;
56429;SDS011;42332;52.136;20.666;2024-02-14T04:18:30;23.40;;;9.68;;
56429;SDS011;42332;52.136;20.666;2024-02-14T04:20:56;20.52;;;8.50;;
56429;SDS011;42332;52.136;20.666;2024-02-14T04:23:21;22.42;;;8.77;;
56429;SDS011;42332;52.136;20.666;2024-02-14T04:25:47;17.25;;;7.90;;
56429;SDS011;42332;52.136;20.666;2024-02-14T04:28:13;21.23;;;8.90;;
56429;SDS011;42332;52.136;20.666;2024-02-14T04:30:38;21.88;;;9.00;;
56429;SDS011;42332;52.136;20.666;2024-02-14T04:33:04;32.22;;;11.20;;
56429;SDS011;42332;52.136;20.666;2024-02-14T04:35:30;23.98;;;8.85;;
56429;SDS011;42332;52.136;20.666;2024-02-14T04:37:56;25.55;;;9.43;;
56429;SDS011;42332;52.136;20.666;2024-02-14T04:40:21;27.45;;;9.70;;
56429;SDS011;42332;52.136;20.666;2024-02-14T04:42:47;28.23;;;9.45;;
56429;SDS011;42332;52.136;20.666;2024-02-14T04:45:12;23.25;;;8.95;;
56429;SDS011;42332;52.136;20.666;2024-02-14T04:47:38;29.95;;;8.98;;
56429;SDS011;42332;52.136;20.666;2024-02-14T04:50:04;22.20;;;9.23;;
56429;SDS011;42332;52.136;20.666;2024-02-14T04:52:30;20.67;;;9.02;;
56429;SDS011;42332;52.136;20.666;2024-02-14T04:54:55;30.13;;;9.68;;
56429;SDS011;42332;52.136;20.666;2024-02-14T04:57:21;28.15;;;8.98;;
56429;SDS011;42332;52.136;20.666;2024-02-14T04:59:47;21.30;;;8.95;;
56429;SDS011;42332;52.136;20.666;2024-02-14T05:02:12;25.38;;;8.07;;
56429;SDS011;42332;52.136;20.666;2024-02-14T05:04:38;17.73;;;7.78;;
56429;SDS011;42332;52.136;20.666;2024-02-14T05:07:04;19.33;;;8.25;;
56429;SDS011;42332;52.136;20.666;2024-02-14T05:09:29;19.92;;;8.52;;
56429;SDS011;42332;52.136;20.666;2024-02-14T05:11:55;21.10;;;8.85;;
56429;SDS011;42332;52.136;20.666;2024-02-14T05:14:20;19.98;;;7.47;;
56429;SDS011;42332;52.136;20.666;2024-02-14T05:16:46;19.45;;;8.15;;
56429;SDS011;42332;52.136;20.666;2024-02-14T05:19:11;18.80;;;8.50;;
56429;SDS011;42332;52.136;20.666;2024-02-14T05:21:37;22.90;;;8.68;;
56429;SDS011;42332;52.136;20.666;2024-02-14T05:24:03;19.02;;;8.52;;
56429;SDS011;42332;52.136;20.666;2024-02-14T05:26:29;22.08;;;7.65;;
56429;SDS011;42332;52.136;20.666;2024-02-14T05:28:54;17.75;;;7.57;;
56429;SDS011;42332;52.136;20.666;2024-02-14T05:31:20;18.60;;;8.30;;
56429;SDS011;42332;52.136;20.666;2024-02-14T05:33:45;26.13;;;8.80;;
56429;SDS011;42332;52.136;20.666;2024-02-14T05:36:10;23.17;;;9.45;;
56429;SDS011;42332;52.136;20.666;2024-02-14T05:38:36;19.92;;;9.25;;
56429;SDS011;42332;52.136;20.666;2024-02-14T05:41:01;33.92;;;10.63;;
56429;SDS011;42332;52.136;20.666;2024-02-14T05:43:26;23.77;;;9.80;;
56429;SDS011;42332;52.136;20.666;2024-02-14T05:45:52;23.38;;;10.05;;
56429;SDS011;42332;52.136;20.666;2024-02-14T05:48:18;32.10;;;11.57;;
56429;SDS011;42332;52.136;20.666;2024-02-14T05:50:44;32.60;;;12.05;;
56429;SDS011;42332;52.136;20.666;2024-02-14T05:53:10;23.50;;;11.35;;
56429;SDS011;42332;52.136;20.666;2024-02-14T05:55:35;34.03;;;10.23;;
56429;SDS011;42332;52.136;20.666;2024-02-14T05:58:00;19.10;;;9.30;;
56429;SDS011;42332;52.136;20.666;2024-02-14T06:00:26;25.90;;;10.20;;
56429;SDS011;42332;52.136;20.666;2024-02-14T06:02:51;22.13;;;9.85;;
56429;SDS011;42332;52.136;20.666;2024-02-14T06:05:17;33.80;;;11.38;;
56429;SDS011;42332;52.136;20.666;2024-02-14T06:07:42;34.42;;;16.42;;
56429;SDS011;42332;52.136;20.666;2024-02-14T06:10:10;38.80;;;17.05;;
56429;SDS011;42332;52.136;20.666;2024-02-14T06:12:35;50.33;;;17.10;;
56429;SDS011;42332;52.136;20.666;2024-02-14T06:15:01;36.88;;;16.75;;
56429;SDS011;42332;52.136;20.666;2024-02-14T06:17:27;37.25;;;16.10;;
56429;SDS011;42332;52.136;20.666;2024-02-14T06:19:52;42.00;;;16.05;;
56429;SDS011;42332;52.136;20.666;2024-02-14T06:22:18;37.78;;;14.05;;
56429;SDS011;42332;52.136;20.666;2024-02-14T06:24:44;26.83;;;12.25;;
56429;SDS011;42332;52.136;20.666;2024-02-14T06:27:09;29.05;;;11.07;;
56429;SDS011;42332;52.136;20.666;2024-02-14T06:29:34;30.88;;;11.95;;
56429;SDS011;42332;52.136;20.666;2024-02-14T06:32:00;33.05;;;10.10;;
56429;SDS011;42332;52.136;20.666;2024-02-14T06:34:25;26.38;;;10.75;;
56429;SDS011;42332;52.136;20.666;2024-02-14T06:36:53;26.45;;;10.45;;
56429;SDS011;42332;52.136;20.666;2024-02-14T06:39:18;24.55;;;10.07;;
56429;SDS011;42332;52.136;20.666;2024-02-14T06:41:45;33.70;;;10.18;;
56429;SDS011;42332;52.136;20.666;2024-02-14T06:44:12;28.75;;;10.90;;
56429;SDS011;42332;52.136;20.666;2024-02-14T06:46:37;26.50;;;10.85;;
56429;SDS011;42332;52.136;20.666;2024-02-14T06:49:03;28.92;;;10.98;;
56429;SDS011;42332;52.136;20.666;2024-02-14T06:51:28;32.97;;;9.68;;
56429;SDS011;42332;52.136;20.666;2024-02-14T06:53:55;28.98;;;11.00;;
56429;SDS011;42332;52.136;20.666;2024-02-14T06:56:21;27.08;;;11.82;;
56429;SDS011;42332;52.136;20.666;2024-02-14T06:58:46;28.98;;;10.27;;
56429;SDS011;42332;52.136;20.666;2024-02-14T07:01:11;29.00;;;10.52;;
56429;SDS011;42332;52.136;20.666;2024-02-14T07:03:40;31.27;;;11.82;;
56429;SDS011;42332;52.136;20.666;2024-02-14T07:06:05;29.17;;;10.55;;
56429;SDS011;42332;52.136;20.666;2024-02-14T07:08:31;22.35;;;10.27;;
56429;SDS011;42332;52.136;20.666;2024-02-14T07:10:56;27.10;;;10.95;;
56429;SDS011;42332;52.136;20.666;2024-02-14T07:13:22;25.23;;;11.18;;
56429;SDS011;42332;52.136;20.666;2024-02-14T07:15:48;23.98;;;10.50;;
56429;SDS011;42332;52.136;20.666;2024-02-14T07:18:13;35.33;;;10.88;;
56429;SDS011;42332;52.136;20.666;2024-02-14T07:20:38;28.30;;;10.88;;
56429;SDS011;42332;52.136;20.666;2024-02-14T07:23:04;26.63;;;10.40;;
56429;SDS011;42332;52.136;20.666;2024-02-14T07:25:30;28.15;;;10.57;;
56429;SDS011;42332;52.136;20.666;2024-02-14T07:27:55;33.15;;;12.50;;
56429;SDS011;42332;52.136;20.666;2024-02-14T07:30:21;27.48;;;11.48;;
56429;SDS011;42332;52.136;20.666;2024-02-14T07:32:46;24.33;;;9.57;;
56429;SDS011;42332;52.136;20.666;2024-02-14T07:35:12;26.55;;;10.82;;
56429;SDS011;42332;52.136;20.666;2024-02-14T07:37:38;28.15;;;10.57;;
56429;SDS011;42332;52.136;20.666;2024-02-14T07:40:04;29.55;;;10.85;;
56429;SDS011;42332;52.136;20.666;2024-02-14T07:42:30;26.27;;;11.55;;
56429;SDS011;42332;52.136;20.666;2024-02-14T07:44:56;35.28;;;12.85;;
56429;SDS011;42332;52.136;20.666;2024-02-14T07:47:22;30.85;;;11.20;;
56429;SDS011;42332;52.136;20.666;2024-02-14T07:49:47;29.10;;;10.73;;
56429;SDS011;42332;52.136;20.666;2024-02-14T07:52:13;29.65;;;10.40;;
56429;SDS011;42332;52.136;20.666;2024-02-14T07:54:38;27.80;;;10.35;;
56429;SDS011;42332;52.136;20.666;2024-02-14T07:57:03;25.48;;;11.38;;
56429;SDS011;42332;52.136;20.666;2024-02-14T07:59:29;29.33;;;10.85;;
56429;SDS011;42332;52.136;20.666;2024-02-14T08:01:54;30.42;;;12.30;;
56429;SDS011;42332;52.136;20.666;2024-02-14T08:04:19;29.23;;;11.98;;
56429;SDS011;42332;52.136;20.666;2024-02-14T08:06:46;37.15;;;12.45;;
56429;SDS011;42332;52.136;20.666;2024-02-14T08:09:11;35.53;;;14.23;;
56429;SDS011;42332;52.136;20.666;2024-02-14T08:11:36;28.52;;;9.80;;
56429;SDS011;42332;52.136;20.666;2024-02-14T08:14:02;26.02;;;10.13;;
56429;SDS011;42332;52.136;20.666;2024-02-14T08:16:28;24.77;;;8.73;;
56429;SDS011;42332;52.136;20.666;2024-02-14T08:18:53;20.42;;;8.55;;
56429;SDS011;42332;52.136;20.666;2024-02-14T08:21:24;20.92;;;8.77;;
56429;SDS011;42332;52.136;20.666;2024-02-14T08:23:52;22.30;;;7.75;;
56429;SDS011;42332;52.136;20.666;2024-02-14T08:26:18;22.05;;;7.13;;
56429;SDS011;42332;52.136;20.666;2024-02-14T08:28:44;21.75;;;7.25;;
56429;SDS011;42332;52.136;20.666;2024-02-14T08:31:12;19.20;;;7.10;;
56429;SDS011;42332;52.136;20.666;2024-02-14T08:33:37;16.17;;;6.22;;
56429;SDS011;42332;52.136;20.666;2024-02-14T08:36:03;15.43;;;6.32;;
56429;SDS011;42332;52.136;20.666;2024-02-14T08:38:32;17.20;;;7.50;;
56429;SDS011;42332;52.136;20.666;2024-02-14T08:40:58;21.23;;;6.78;;
56429;SDS011;42332;52.136;20.666;2024-02-14T08:43:24;17.42;;;7.45;;
56429;SDS011;42332;52.136;20.666;2024-02-14T08:45:53;25.05;;;7.50;;
56429;SDS011;42332;52.136;20.666;2024-02-14T08:48:19;17.55;;;7.30;;
56429;SDS011;42332;52.136;20.666;2024-02-14T08:50:44;16.33;;;6.18;;
56429;SDS011;42332;52.136;20.666;2024-02-14T08:53:11;18.88;;;5.88;;
56429;SDS011;42332;52.136;20.666;2024-02-14T08:55:38;18.92;;;5.97;;
56429;SDS011;42332;52.136;20.666;2024-02-14T08:58:04;20.02;;;5.82;;
56429;SDS011;42332;52.136;20.666;2024-02-14T09:00:29;17.42;;;5.70;;
56429;SDS011;42332;52.136;20.666;2024-02-14T09:02:57;17.33;;;6.18;;
56429;SDS011;42332;52.136;20.666;2024-02-14T09:05:25;16.70;;;5.28;;
56429;SDS011;42332;52.136;20.666;2024-02-14T09:07:50;11.32;;;5.28;;
56429;SDS011;42332;52.136;20.666;2024-02-14T09:10:15;11.30;;;4.80;;
56429;SDS011;42332;52.136;20.666;2024-02-14T09:12:41;8.10;;;3.83;;
56429;SDS011;42332;52.136;20.666;2024-02-14T09:15:07;13.93;;;5.22;;
56429;SDS011;42332;52.136;20.666;2024-02-14T09:17:33;9.38;;;4.05;;
56429;SDS011;42332;52.136;20.666;2024-02-14T09:19:58;10.27;;;3.72;;
56429;SDS011;42332;52.136;20.666;2024-02-14T09:22:24;11.15;;;4.57;;
56429;SDS011;42332;52.136;20.666;2024-02-14T09:24:50;12.23;;;3.85;;
56429;SDS011;42332;52.136;20.666;2024-02-14T09:27:15;11.02;;;4.10;;
56429;SDS011;42332;52.136;20.666;2024-02-14T09:29:41;13.65;;;3.83;;
56429;SDS011;42332;52.136;20.666;2024-02-14T09:32:07;11.55;;;4.00;;
56429;SDS011;42332;52.136;20.666;2024-02-14T09:34:33;11.70;;;3.72;;
56429;SDS011;42332;52.136;20.666;2024-02-14T09:36:59;10.88;;;3.80;;
56429;SDS011;42332;52.136;20.666;2024-02-14T09:39:24;9.77;;;4.10;;
56429;SDS011;42332;52.136;20.666;2024-02-14T09:41:54;17.05;;;3.78;;
56429;SDS011;42332;52.136;20.666;2024-02-14T09:44:24;14.45;;;3.25;;
56429;SDS011;42332;52.136;20.666;2024-02-14T09:46:55;9.27;;;2.92;;
56429;SDS011;42332;52.136;20.666;2024-02-14T09:49:21;10.20;;;2.50;;
56429;SDS011;42332;52.136;20.666;2024-02-14T09:51:47;6.82;;;2.67;;
56429;SDS011;42332;52.136;20.666;2024-02-14T09:54:14;6.28;;;2.33;;
56429;SDS011;42332;52.136;20.666;2024-02-14T09:56:40;6.75;;;2.17;;
56429;SDS011;42332;52.136;20.666;2024-02-14T09:59:05;7.20;;;2.53;;
56429;SDS011;42332;52.136;20.666;2024-02-14T10:01:31;9.65;;;2.65;;
56429;SDS011;42332;52.136;20.666;2024-02-14T10:03:56;4.95;;;2.17;;
56429;SDS011;42332;52.136;20.666;2024-02-14T10:06:22;7.40;;;2.53;;
56429;SDS011;42332;52.136;20.666;2024-02-14T10:08:49;9.07;;;2.17;;
56429;SDS011;42332;52.136;20.666;2024-02-14T10:11:17;7.00;;;2.53;;
56429;SDS011;42332;52.136;20.666;2024-02-14T10:13:46;5.50;;;2.15;;
56429;SDS011;42332;52.136;20.666;2024-02-14T10:16:13;11.15;;;2.55;;
56429;SDS011;42332;52.136;20.666;2024-02-14T10:18:39;6.18;;;2.63;;
56429;SDS011;42332;52.136;20.666;2024-02-14T10:21:04;10.07;;;2.63;;
56429;SDS011;42332;52.136;20.666;2024-02-14T10:23:30;11.18;;;3.05;;
56429;SDS011;42332;52.136;20.666;2024-02-14T10:25:56;8.23;;;1.98;;
56429;SDS011;42332;52.136;20.666;2024-02-14T10:28:22;6.55;;;1.90;;
56429;SDS011;42332;52.136;20.666;2024-02-14T10:30:48;5.53;;;2.22;;
56429;SDS011;42332;52.136;20.666;2024-02-14T10:33:15;4.15;;;1.73;;
56429;SDS011;42332;52.136;20.666;2024-02-14T10:35:40;4.60;;;1.75;;
56429;SDS011;42332;52.136;20.666;2024-02-14T10:38:07;8.82;;;2.83;;
56429;SDS011;42332;52.136;20.666;2024-02-14T10:40:34;12.10;;;2.75;;
56429;SDS011;42332;52.136;20.666;2024-02-14T10:43:00;4.85;;;1.85;;
56429;SDS011;42332;52.136;20.666;2024-02-14T10:45:26;8.35;;;2.83;;
56429;SDS011;42332;52.136;20.666;2024-02-14T10:47:52;8.45;;;2.20;;
56429;SDS011;42332;52.136;20.666;2024-02-14T10:50:19;7.45;;;2.00;;
56429;SDS011;42332;52.136;20.666;2024-02-14T10:52:46;10.63;;;2.50;;
56429;SDS011;42332;52.136;20.666;2024-02-14T10:55:13;6.07;;;1.95;;
56429;SDS011;42332;52.136;20.666;2024-02-14T10:57:41;10.15;;;2.10;;
56429;SDS011;42332;52.136;20.666;2024-02-14T11:00:10;8.38;;;2.10;;
56429;SDS011;42332;52.136;20.666;2024-02-14T11:02:39;3.42;;;1.65;;
56429;SDS011;42332;52.136;20.666;2024-02-14T11:05:05;5.00;;;2.05;;
56429;SDS011;42332;52.136;20.666;2024-02-14T11:07:32;7.50;;;2.20;;
56429;SDS011;42332;52.136;20.666;2024-02-14T11:10:01;8.32;;;2.45;;
56429;SDS011;42332;52.136;20.666;2024-02-14T11:12:38;5.90;;;1.88;;
56429;SDS011;42332;52.136;20.666;2024-02-14T11:15:09;14.18;;;2.47;;
56429;SDS011;42332;52.136;20.666;2024-02-14T11:17:44;6.78;;;2.05;;
56429;SDS011;42332;52.136;20.666;2024-02-14T11:22:55;9.80;;;3.53;;
56429;SDS011;42332;52.136;20.666;2024-02-14T11:25:38;5.93;;;2.42;;
56429;SDS011;42332;52.136;20.666;2024-02-14T11:28:13;7.55;;;1.90;;
56429;SDS011;42332;52.136;20.666;2024-02-14T11:30:39;9.90;;;2.50;;
56429;SDS011;42332;52.136;20.666;2024-02-14T11:35:47;7.93;;;2.90;;
56429;SDS011;42332;52.136;20.666;2024-02-14T11:38:20;5.55;;;2.38;;
56429;SDS011;42332;52.136;20.666;2024-02-14T11:40:46;9.45;;;2.53;;
56429;SDS011;42332;52.136;20.666;2024-02-14T11:43:16;23.27;;;5.20;;
56429;SDS011;42332;52.136;20.666;2024-02-14T11:45:43;10.10;;;2.97;;
56429;SDS011;42332;52.136;20.666;2024-02-14T11:48:11;4.72;;;2.05;;
56429;SDS011;42332;52.136;20.666;2024-02-14T11:50:40;8.43;;;2.60;;
56429;SDS011;42332;52.136;20.666;2024-02-14T11:53:06;7.35;;;2.35;;
56429;SDS011;42332;52.136;20.666;2024-02-14T11:55:36;5.25;;;1.83;;
56429;SDS011;42332;52.136;20.666;2024-02-14T11:58:03;11.32;;;2.67;;
56429;SDS011;42332;52.136;20.666;2024-02-14T12:00:37;6.75;;;2.55;;
56429;SDS011;42332;52.136;20.666;2024-02-14T12:03:06;5.22;;;1.92;;
56429;SDS011;42332;52.136;20.666;2024-02-14T12:05:32;10.35;;;2.83;;
56429;SDS011;42332;52.136;20.666;2024-02-14T12:07:58;5.85;;;2.58;;
56429;SDS011;42332;52.136;20.666;2024-02-14T12:10:24;10.38;;;2.22;;
56429;SDS011;42332;52.136;20.666;2024-02-14T12:12:50;5.65;;;2.58;;
56429;SDS011;42332;52.136;20.666;2024-02-14T12:15:15;9.82;;;2.92;;
56429;SDS011;42332;52.136;20.666;2024-02-14T12:17:41;5.65;;;2.28;;
56429;SDS011;42332;52.136;20.666;2024-02-14T12:20:10;13.52;;;2.90;;
56429;SDS011;42332;52.136;20.666;2024-02-14T12:22:39;10.27;;;2.40;;
56429;SDS011;42332;52.136;20.666;2024-02-14T12:25:05;10.93;;;2.97;;
56429;SDS011;42332;52.136;20.666;2024-02-14T12:27:34;5.78;;;2.28;;
56429;SDS011;42332;52.136;20.666;2024-02-14T12:30:03;6.35;;;2.60;;
56429;SDS011;42332;52.136;20.666;2024-02-14T12:32:30;13.20;;;2.83;;
56429;SDS011;42332;52.136;20.666;2024-02-14T12:34:56;6.60;;;2.47;;
56429;SDS011;42332;52.136;20.666;2024-02-14T12:37:22;15.55;;;3.03;;
56429;SDS011;42332;52.136;20.666;2024-02-14T12:39:48;6.88;;;2.70;;
56429;SDS011;42332;52.136;20.666;2024-02-14T12:42:13;5.40;;;2.15;;
56429;SDS011;42332;52.136;20.666;2024-02-14T12:44:39;7.45;;;2.63;;
56429;SDS011;42332;52.136;20.666;2024-02-14T12:47:04;8.20;;;2.97;;
56429;SDS011;42332;52.136;20.666;2024-02-14T12:49:30;7.20;;;2.70;;
56429;SDS011;42332;52.136;20.666;2024-02-14T12:51:56;7.07;;;2.55;;
56429;SDS011;42332;52.136;20.666;2024-02-14T12:54:22;6.43;;;2.45;;
56429;SDS011;42332;52.136;20.666;2024-02-14T12:56:48;9.73;;;3.13;;
56429;SDS011;42332;52.136;20.666;2024-02-14T12:59:14;5.57;;;2.45;;
56429;SDS011;42332;52.136;20.666;2024-02-14T13:01:43;8.15;;;3.03;;
56429;SDS011;42332;52.136;20.666;2024-02-14T13:04:08;10.45;;;3.17;;
56429;SDS011;42332;52.136;20.666;2024-02-14T13:06:34;7.32;;;2.85;;
56429;SDS011;42332;52.136;20.666;2024-02-14T13:09:00;7.50;;;3.05;;
56429;SDS011;42332;52.136;20.666;2024-02-14T13:11:25;10.93;;;2.88;;
56429;SDS011;42332;52.136;20.666;2024-02-14T13:13:51;10.55;;;2.88;;
56429;SDS011;42332;52.136;20.666;2024-02-14T13:16:16;11.55;;;3.10;;
56429;SDS011;42332;52.136;20.666;2024-02-14T13:18:41;9.40;;;2.97;;
56429;SDS011;42332;52.136;20.666;2024-02-14T13:21:07;14.43;;;3.13;;
56429;SDS011;42332;52.136;20.666;2024-02-14T13:23:32;7.45;;;2.60;;
56429;SDS011;42332;52.136;20.666;2024-02-14T13:25:58;7.10;;;2.63;;
56429;SDS011;42332;52.136;20.666;2024-02-14T13:28:23;6.82;;;2.78;;
56429;SDS011;42332;52.136;20.666;2024-02-14T13:30:49;8.38;;;2.63;;
56429;SDS011;42332;52.136;20.666;2024-02-14T13:33:15;5.13;;;2.15;;
56429;SDS011;42332;52.136;20.666;2024-02-14T13:35:40;9.82;;;2.78;;
56429;SDS011;42332;52.136;20.666;2024-02-14T13:38:06;18.40;;;3.17;;
56429;SDS011;42332;52.136;20.666;2024-02-14T13:40:31;12.35;;;2.70;;
56429;SDS011;42332;52.136;20.666;2024-02-14T13:42:57;10.30;;;2.65;;
56429;SDS011;42332;52.136;20.666;2024-02-14T13:45:23;10.32;;;3.05;;
56429;SDS011;42332;52.136;20.666;2024-02-14T13:47:48;8.85;;;3.35;;
56429;SDS011;42332;52.136;20.666;2024-02-14T13:50:14;10.23;;;3.20;;
56429;SDS011;42332;52.136;20.666;2024-02-14T13:52:39;13.10;;;3.55;;
56429;SDS011;42332;52.136;20.666;2024-02-14T13:55:05;10.25;;;2.95;;
56429;SDS011;42332;52.136;20.666;2024-02-14T13:57:33;9.07;;;2.67;;
56429;SDS011;42332;52.136;20.666;2024-02-14T14:00:01;7.13;;;2.53;;
56429;SDS011;42332;52.136;20.666;2024-02-14T14:02:27;6.63;;;2.75;;
56429;SDS011;42332;52.136;20.666;2024-02-14T14:04:52;11.07;;;2.47;;
56429;SDS011;42332;52.136;20.666;2024-02-14T14:07:18;8.60;;;2.72;;
56429;SDS011;42332;52.136;20.666;2024-02-14T14:09:44;8.95;;;2.58;;
56429;SDS011;42332;52.136;20.666;2024-02-14T14:12:09;8.02;;;2.55;;
56429;SDS011;42332;52.136;20.666;2024-02-14T14:14:36;9.63;;;2.80;;
56429;SDS011;42332;52.136;20.666;2024-02-14T14:17:01;7.47;;;2.90;;
56429;SDS011;42332;52.136;20.666;2024-02-14T14:19:27;8.57;;;2.90;;
56429;SDS011;42332;52.136;20.666;2024-02-14T14:21:52;8.45;;;2.95;;